Time;durP1;ratioP1;P1;durP2;ratioP2;P2;SDS_P1;SDS_P2;PMS_P1;PMS_P2;Temp;Humidity;BMP_temperature;BMP_pressure;BME280_temperature;BME280_humidity;BME280_pressure;Samples;Min_cycle;Max_cycle;Signal;HPM_P1;HPM_P2
2021/12/07 00:01:49;;;;;;;1.90;1.60;;;-8.90;99.90;;;;;;5091993;28;20479;-63
2021/12/07 00:04:16;;;;;;;2.13;1.63;;;-8.80;99.90;;;;;;5092583;28;20040;-63
2021/12/07 00:06:42;;;;;;;4.45;2.10;;;-8.80;99.90;;;;;;5092078;28;20536;-63
2021/12/07 00:09:11;;;;;;;3.72;2.30;;;-8.80;99.90;;;;;;5092073;28;20020;-63
2021/12/07 00:11:37;;;;;;;2.20;2.00;;;-8.80;99.90;;;;;;5091973;28;20066;-63
2021/12/07 00:14:12;;;;;;;2.67;2.00;;;-8.80;99.90;;;;;;5092180;28;20063;-63
2021/12/07 00:16:39;;;;;;;2.22;2.03;;;-8.80;99.90;;;;;;5092008;28;20024;-63
2021/12/07 00:19:05;;;;;;;3.47;2.17;;;-8.80;99.90;;;;;;5090506;28;20395;-63
2021/12/07 00:21:31;;;;;;;2.67;2.08;;;-8.80;99.90;;;;;;5092130;28;20391;-63
2021/12/07 00:23:57;;;;;;;2.10;1.90;;;-8.80;99.90;;;;;;5091889;28;20028;-63
2021/12/07 00:26:23;;;;;;;2.25;1.90;;;-8.80;99.90;;;;;;5091875;28;20016;-63
2021/12/07 00:28:50;;;;;;;2.65;1.85;;;-8.70;99.90;;;;;;5091617;28;20399;-63
2021/12/07 00:32:18;;;;;;;1.95;1.75;;;-8.70;99.90;;;;;;5091752;28;20036;-63
2021/12/07 00:34:19;;;;;;;2.70;2.00;;;-8.70;99.90;;;;;;5083341;28;20036;-63
2021/12/07 00:36:47;;;;;;;3.10;1.95;;;-8.70;99.90;;;;;;5092028;28;20032;-63
2021/12/07 00:39:16;;;;;;;2.60;1.95;;;-8.70;99.90;;;;;;5091655;28;20020;-63
2021/12/07 00:41:42;;;;;;;2.83;2.20;;;-8.60;99.90;;;;;;5090709;28;20058;-63
2021/12/07 00:44:09;;;;;;;5.10;2.30;;;-8.60;99.90;;;;;;5091674;28;20020;-63
2021/12/07 00:46:35;;;;;;;2.42;2.00;;;-8.60;99.90;;;;;;5091873;28;20024;-63
2021/12/07 00:49:02;;;;;;;4.13;1.80;;;-8.60;99.90;;;;;;5091815;28;20074;-62
2021/12/07 00:51:28;;;;;;;2.40;2.08;;;-8.50;99.90;;;;;;5094781;28;20071;-62
2021/12/07 00:53:54;;;;;;;3.05;2.15;;;-8.50;99.90;;;;;;5095634;28;20048;-62
2021/12/07 00:56:21;;;;;;;4.50;2.08;;;-8.50;99.90;;;;;;5095721;28;20028;-62
2021/12/07 00:58:47;;;;;;;2.33;2.13;;;-8.50;99.90;;;;;;5095755;28;20024;-62
2021/12/07 01:01:15;;;;;;;1.95;1.77;;;-8.50;99.90;;;;;;5095437;28;20051;-62
2021/12/07 01:03:41;;;;;;;2.85;2.03;;;-8.50;99.90;;;;;;5095550;28;20031;-62
2021/12/07 01:24:56;;;;;;;3.05;2.15;;;-8.40;99.90;;;;;;5095175;28;20142;-61
2021/12/07 01:27:23;;;;;;;2.95;2.40;;;-8.40;99.90;;;;;;5095431;28;20065;-62
2021/12/07 01:29:59;;;;;;;3.95;2.45;;;-8.40;99.90;;;;;;5095000;28;20035;-61
2021/12/07 01:40:37;;;;;;;3.60;2.60;;;-8.40;99.90;;;;;;5095238;28;20081;-61
2021/12/07 01:46:35;;;;;;;3.10;2.50;;;-8.40;99.90;;;;;;5094880;28;20361;-62
2021/12/07 01:51:46;;;;;;;3.22;2.33;;;-8.50;99.90;;;;;;5094574;28;20077;-62
2021/12/07 01:59:53;;;;;;;3.65;2.45;;;-8.40;99.90;;;;;;5094463;28;20063;-61
2021/12/07 02:02:23;;;;;;;3.70;2.17;;;-8.40;99.90;;;;;;5094011;28;20059;-62
2021/12/07 02:04:49;;;;;;;;;;;-8.40;99.90;;;;;;5095202;28;20055;-62
2021/12/07 02:07:15;;;;;;;2.40;2.13;;;-8.40;99.90;;;;;;5094411;28;19981;-62
2021/12/07 02:09:45;;;;;;;3.67;2.35;;;-8.40;99.90;;;;;;5094600;28;20043;-62
2021/12/07 02:12:13;;;;;;;2.85;2.55;;;-8.30;99.90;;;;;;5094437;28;20403;-61
2021/12/07 02:14:40;;;;;;;5.22;2.35;;;-8.30;99.90;;;;;;5094638;28;20057;-61
2021/12/07 02:17:09;;;;;;;2.88;2.55;;;-8.30;99.90;;;;;;5093064;28;20028;-61
2021/12/07 02:19:36;;;;;;;5.72;2.50;;;-8.30;99.90;;;;;;5094459;28;20016;-61
2021/12/07 02:22:03;;;;;;;7.40;3.00;;;-8.20;99.90;;;;;;5094301;28;20028;-61
2021/12/07 02:53:34;;;;;;;4.32;2.33;;;-8.20;99.90;;;;;;5093300;28;20024;-62
2021/12/07 02:56:02;;;;;;;6.53;2.30;;;-8.20;99.90;;;;;;5093479;28;20032;-62
2021/12/07 02:58:28;;;;;;;3.03;2.30;;;-8.10;99.90;;;;;;5093639;28;20031;-62
2021/12/07 03:01:02;;;;;;;4.05;2.40;;;-8.10;99.90;;;;;;5093168;28;20050;-62
2021/12/07 03:03:32;;;;;;;3.85;2.50;;;-8.10;99.90;;;;;;5093306;28;20020;-62
2021/12/07 03:27:50;;;;;;;4.30;2.20;;;-8.20;99.90;;;;;;5092792;28;20031;-62
2021/12/07 03:30:16;;;;;;;3.88;2.45;;;-8.20;99.90;;;;;;5092844;28;20032;-62
2021/12/07 03:32:41;;;;;;;3.33;2.55;;;-8.20;99.90;;;;;;5092725;28;20032;-62
2021/12/07 03:35:07;;;;;;;2.88;2.20;;;-8.20;99.90;;;;;;5093677;28;20026;-62
2021/12/07 03:37:33;;;;;;;3.33;2.35;;;-8.20;99.90;;;;;;5098596;28;20024;-61
2021/12/07 03:39:59;;;;;;;4.93;2.17;;;-8.20;99.90;;;;;;5092982;28;20024;-61
2021/12/07 03:42:25;;;;;;;3.90;2.22;;;-8.30;99.90;;;;;;5092507;28;20075;-61
2021/12/07 03:44:50;;;;;;;3.63;2.20;;;-8.40;99.90;;;;;;5092769;28;20026;-61
2021/12/07 03:47:16;;;;;;;3.88;2.30;;;-8.40;99.90;;;;;;5092814;28;20028;-61
2021/12/07 03:49:42;;;;;;;3.15;2.35;;;-8.40;99.90;;;;;;5092303;28;20032;-61
2021/12/07 03:52:08;;;;;;;3.42;2.35;;;-8.40;99.90;;;;;;5092590;28;20078;-61
2021/12/07 03:54:34;;;;;;;2.55;2.20;;;-8.30;99.90;;;;;;5092465;28;20489;-61
2021/12/07 03:57:00;;;;;;;2.65;2.10;;;-8.30;99.90;;;;;;5092434;28;20118;-61
2021/12/07 03:59:25;;;;;;;3.95;2.17;;;-8.30;99.90;;;;;;5092176;28;20080;-61
2021/12/07 04:01:52;;;;;;;3.38;2.30;;;-8.20;99.90;;;;;;5092111;28;20020;-61
2021/12/07 04:04:19;;;;;;;3.10;2.25;;;-8.20;99.90;;;;;;5092282;28;20475;-61
2021/12/07 04:06:44;;;;;;;3.42;2.20;;;-8.10;99.90;;;;;;5092133;28;20055;-61
2021/12/07 04:09:10;;;;;;;3.33;2.10;;;-8.20;99.90;;;;;;5092196;28;20089;-61
2021/12/07 04:11:36;;;;;;;4.53;2.30;;;-8.20;99.90;;;;;;5092217;28;20039;-61
2021/12/07 04:14:02;;;;;;;5.03;2.38;;;-8.20;99.90;;;;;;5091959;28;20020;-62
2021/12/07 04:16:28;;;;;;;2.75;1.98;;;-8.20;99.90;;;;;;5090893;28;20418;-62
2021/12/07 04:18:54;;;;;;;3.10;1.95;;;-8.20;99.90;;;;;;5091951;28;20073;-62
2021/12/07 04:21:19;;;;;;;2.20;2.00;;;-8.20;99.90;;;;;;5092454;28;20032;-62
2021/12/07 04:23:45;;;;;;;3.78;2.03;;;-8.20;99.90;;;;;;5090538;28;20417;-62
2021/12/07 04:26:12;;;;;;;4.50;1.88;;;-8.20;99.90;;;;;;5092117;28;20111;-62
2021/12/07 04:28:39;;;;;;;2.20;2.00;;;-8.20;99.90;;;;;;5091870;28;20073;-62
2021/12/07 04:31:05;;;;;;;3.85;2.33;;;-8.20;99.90;;;;;;5091826;28;20039;-63
2021/12/07 04:33:32;;;;;;;2.42;2.13;;;-8.20;99.90;;;;;;5091876;28;20017;-62
2021/12/07 04:35:59;;;;;;;3.05;2.05;;;-8.20;99.90;;;;;;5091833;28;20024;-62
2021/12/07 04:38:26;;;;;;;2.60;2.03;;;-8.10;99.90;;;;;;5091688;28;20072;-62
2021/12/07 04:40:52;;;;;;;2.33;2.10;;;-8.10;99.90;;;;;;5090645;28;20031;-62
2021/12/07 04:43:18;;;;;;;3.95;2.38;;;-8.00;99.90;;;;;;5091753;28;20087;-62
2021/12/07 04:59:06;;;;;;;3.00;1.95;;;-8.00;99.90;;;;;;5091591;28;20101;-63
2021/12/07 05:01:33;;;;;;;5.28;2.38;;;-8.00;99.90;;;;;;5091770;28;20024;-63
2021/12/07 05:04:04;;;;;;;2.65;2.00;;;-8.00;99.90;;;;;;5091470;28;20020;-63
2021/12/07 05:06:32;;;;;;;3.67;2.33;;;-8.00;99.90;;;;;;5091539;28;20111;-64
2021/12/07 05:09:06;;;;;;;4.00;2.50;;;-8.10;99.90;;;;;;5091187;28;20464;-64
2021/12/07 05:14:18;;;;;;;7.00;2.55;;;-8.10;99.90;;;;;;5091469;28;20028;-64
2021/12/07 05:24:27;;;;;;;4.05;2.38;;;-7.90;99.90;;;;;;5091285;28;20039;-63
2021/12/07 05:37:56;;;;;;;4.95;2.88;;;-8.00;99.90;;;;;;5094188;28;20020;-65
2021/12/07 05:40:31;;;;;;;3.47;1.98;;;-7.90;99.90;;;;;;5094934;28;20027;-66
2021/12/07 05:42:58;;;;;;;3.90;2.35;;;-7.30;99.90;;;;;;5094469;28;20032;-68
2021/12/07 05:45:31;;;;;;;5.32;2.75;;;-5.50;99.90;;;;;;5094197;28;20107;-64
2021/12/07 05:47:58;;;;;;;7.70;3.33;;;-5.70;99.90;;;;;;5094325;28;20107;-64
2021/12/07 05:50:28;;;;;;;3.08;2.67;;;-6.10;99.90;;;;;;5093855;28;20036;-64
2021/12/07 05:52:54;;;;;;;5.50;2.70;;;-6.40;99.90;;;;;;5094323;28;20039;-65
2021/12/07 05:55:20;;;;;;;4.70;3.13;;;-6.60;99.90;;;;;;5093971;28;20051;-64
2021/12/07 05:57:47;;;;;;;4.85;3.13;;;-6.80;99.90;;;;;;5094297;28;20150;-64
2021/12/07 06:00:23;;;;;;;8.48;3.80;;;-6.90;99.90;;;;;;5093695;28;20103;-65
2021/12/07 06:02:49;;;;;;;5.00;2.78;;;-7.00;99.90;;;;;;5092992;28;20031;-65
2021/12/07 06:05:15;;;;;;;6.18;3.13;;;-7.00;99.90;;;;;;5096253;28;20224;-65
2021/12/07 06:07:40;;;;;;;6.20;3.20;;;-7.20;99.90;;;;;;5092969;28;20154;-65
2021/12/07 06:10:06;;;;;;;4.93;2.70;;;-7.30;99.90;;;;;;5093435;28;20039;-65
2021/12/07 06:12:32;;;;;;;4.60;2.25;;;-7.30;99.90;;;;;;5093612;28;20043;-65
2021/12/07 06:14:58;;;;;;;5.90;2.65;;;-7.30;99.90;;;;;;5093521;28;20473;-66
2021/12/07 06:17:24;;;;;;;5.18;2.95;;;-7.30;99.90;;;;;;5094014;28;20032;-65
2021/12/07 06:19:50;;;;;;;4.90;2.78;;;-7.30;99.90;;;;;;5112360;28;20015;-64
2021/12/07 06:22:16;;;;;;;4.70;2.92;;;-7.30;99.90;;;;;;5093774;28;20533;-65
2021/12/07 06:24:41;;;;;;;6.22;3.35;;;-7.30;99.90;;;;;;5094115;28;20077;-65
2021/12/07 06:27:07;;;;;;;4.22;2.58;;;-7.30;99.90;;;;;;5093904;28;20484;-65
2021/12/07 06:29:33;;;;;;;4.80;2.75;;;-7.30;99.90;;;;;;5093833;28;20030;-65
2021/12/07 06:31:58;;;;;;;6.03;3.40;;;-7.30;99.90;;;;;;5093754;28;20055;-65
2021/12/07 06:34:24;;;;;;;4.28;2.92;;;-7.30;99.90;;;;;;5093741;28;20044;-64
2021/12/07 06:36:50;;;;;;;4.03;3.00;;;-7.00;99.90;;;;;;5094062;28;20078;-64
2021/12/07 06:39:18;;;;;;;4.00;2.70;;;-6.90;99.90;;;;;;5092192;28;20024;-64
2021/12/07 06:41:44;;;;;;;5.13;3.22;;;-6.90;99.90;;;;;;5093700;28;20028;-64
2021/12/07 06:44:10;;;;;;;3.63;2.60;;;-7.00;99.90;;;;;;5093553;28;20036;-64
2021/12/07 06:46:36;;;;;;;5.35;2.85;;;-7.00;99.90;;;;;;5093637;28;20025;-65
2021/12/07 06:49:02;;;;;;;6.10;2.85;;;-7.20;99.90;;;;;;5092436;28;20072;-64
2021/12/07 06:51:28;;;;;;;4.25;2.90;;;-7.30;99.90;;;;;;5093671;28;20108;-64
2021/12/07 06:53:54;;;;;;;6.00;2.40;;;-7.30;99.90;;;;;;5093378;28;20049;-66
2021/12/07 06:56:20;;;;;;;8.73;2.50;;;-6.60;99.90;;;;;;5093354;28;20154;-62
2021/12/07 06:58:46;;;;;;;4.25;2.40;;;-5.40;99.90;;;;;;5093340;28;20107;-62
2021/12/07 07:01:12;;;;;;;3.80;2.55;;;-4.70;99.90;;;;;;5093770;28;20127;-63
2021/12/07 07:03:39;;;;;;;4.68;2.97;;;-5.40;99.90;;;;;;5093281;28;20387;-63
2021/12/07 07:06:05;;;;;;;3.67;2.63;;;-5.90;99.90;;;;;;5093098;28;20365;-62
2021/12/07 07:08:32;;;;;;;3.92;2.55;;;-6.20;99.90;;;;;;5093182;28;20028;-63
2021/12/07 07:10:58;;;;;;;5.43;2.80;;;-5.30;99.90;;;;;;5093430;28;20040;-63
2021/12/07 07:13:24;;;;;;;5.93;2.90;;;-4.70;99.90;;;;;;5093339;28;20027;-62
2021/12/07 07:15:50;;;;;;;6.47;2.80;;;-4.90;99.90;;;;;;5095106;28;20032;-62
2021/12/07 07:18:15;;;;;;;4.10;2.78;;;-5.40;99.90;;;;;;5092368;28;20020;-62
2021/12/07 07:20:41;;;;;;;5.65;2.92;;;-5.70;99.90;;;;;;5095438;28;20414;-62
2021/12/07 07:23:07;;;;;;;4.97;3.10;;;-5.90;99.90;;;;;;5092583;28;20020;-63
2021/12/07 07:25:33;;;;;;;7.30;2.97;;;-6.10;99.90;;;;;;5092988;28;20028;-62
2021/12/07 07:28:00;;;;;;;5.97;3.65;;;-6.30;99.90;;;;;;5092142;28;20027;-62
2021/12/07 07:30:27;;;;;;;7.03;4.38;;;-6.40;99.90;;;;;;5092197;28;20514;-62
2021/12/07 07:32:53;;;;;;;7.88;3.80;;;-6.50;99.90;;;;;;5092235;28;20024;-62
2021/12/07 07:35:19;;;;;;;7.07;3.55;;;-6.50;99.90;;;;;;5092774;28;20085;-62
2021/12/07 07:37:46;;;;;;;5.95;3.33;;;-6.50;99.90;;;;;;5092740;28;20028;-62
2021/12/07 07:40:16;;;;;;;3.53;2.60;;;-6.60;99.90;;;;;;5091309;28;20020;-62
2021/12/07 07:42:42;;;;;;;4.03;2.40;;;-6.70;99.90;;;;;;5092702;28;20119;-62
2021/12/07 07:45:08;;;;;;;3.45;2.60;;;-6.70;99.90;;;;;;5092465;28;20095;-62
2021/12/07 07:47:34;;;;;;;3.67;2.33;;;-6.80;99.90;;;;;;5092278;28;20020;-62
2021/12/07 07:50:00;;;;;;;4.22;2.63;;;-6.80;99.90;;;;;;5092239;28;20361;-62
2021/12/07 07:52:26;;;;;;;6.95;2.92;;;-6.80;99.90;;;;;;5092350;28;20020;-62
2021/12/07 07:54:51;;;;;;;4.40;3.17;;;-6.90;99.90;;;;;;5091904;28;20016;-61
2021/12/07 07:57:17;;;;;;;4.97;2.97;;;-7.00;99.90;;;;;;5091793;28;20028;-62
2021/12/07 07:59:43;;;;;;;5.53;2.25;;;-7.00;99.90;;;;;;5091579;28;20071;-62
2021/12/07 08:02:09;;;;;;;7.07;2.90;;;-6.40;99.90;;;;;;5091899;28;20128;-61
2021/12/07 08:04:34;;;;;;;3.80;2.60;;;-5.90;99.90;;;;;;5092369;28;20020;-61
2021/12/07 08:07:00;;;;;;;8.40;3.10;;;-6.00;99.90;;;;;;5092089;28;20415;-64
2021/12/07 08:09:27;;;;;;;4.85;3.15;;;-6.20;99.90;;;;;;5092023;28;20081;-63
2021/12/07 08:11:53;;;;;;;5.85;3.13;;;-6.40;99.90;;;;;;5092174;28;20039;-64
2021/12/07 08:14:19;;;;;;;5.05;2.90;;;-6.50;99.90;;;;;;5091981;28;20028;-63
2021/12/07 08:16:46;;;;;;;6.05;2.80;;;-6.60;99.90;;;;;;5092291;28;20059;-63
2021/12/07 08:19:12;;;;;;;5.93;2.83;;;-6.80;99.90;;;;;;5093001;28;20479;-63
2021/12/07 08:21:38;;;;;;;6.95;3.47;;;-6.80;99.90;;;;;;5111706;28;20110;-63
2021/12/07 08:24:04;;;;;;;5.85;3.00;;;-6.90;99.90;;;;;;5095144;28;20055;-65
2021/12/07 08:26:31;;;;;;;6.03;3.15;;;-6.90;99.90;;;;;;5091992;28;20020;-65
2021/12/07 08:28:58;;;;;;;6.85;2.67;;;-6.90;99.90;;;;;;5092206;28;20062;-64
2021/12/07 08:31:26;;;;;;;4.55;3.13;;;-6.80;99.90;;;;;;5091415;28;20046;-63
2021/12/07 08:33:51;;;;;;;4.10;2.58;;;-6.80;99.90;;;;;;5090698;28;20055;-64
2021/12/07 08:36:18;;;;;;;6.07;3.08;;;-6.80;99.90;;;;;;5091493;28;20063;-64
2021/12/07 08:38:44;;;;;;;5.93;2.60;;;-6.90;99.90;;;;;;5091746;28;20020;-64
2021/12/07 08:41:11;;;;;;;5.90;2.85;;;-7.00;99.90;;;;;;5090794;28;20031;-64
2021/12/07 08:43:39;;;;;;;8.73;3.30;;;-7.00;99.90;;;;;;5092078;28;20042;-63
2021/12/07 08:46:06;;;;;;;5.35;2.50;;;-7.00;99.90;;;;;;5091988;28;20368;-63
2021/12/07 08:48:34;;;;;;;4.03;2.88;;;-7.10;99.90;;;;;;5091683;28;20089;-65
2021/12/07 08:51:00;;;;;;;4.28;2.90;;;-7.10;99.90;;;;;;5091945;28;20136;-65
2021/12/07 08:53:27;;;;;;;4.88;3.15;;;-7.10;99.90;;;;;;5091874;28;20051;-63
2021/12/07 09:01:26;;;;;;;7.00;3.05;;;-7.10;99.90;;;;;;5091321;28;20483;-63
2021/12/07 09:03:55;;;;;;;3.97;2.70;;;-7.10;99.90;;;;;;5092359;28;20024;-64
2021/12/07 09:06:20;;;;;;;5.90;2.63;;;-7.10;99.90;;;;;;5107226;28;20024;-61
2021/12/07 09:08:46;;;;;;;5.25;3.03;;;-7.00;99.90;;;;;;5091022;28;20106;-63
2021/12/07 09:11:14;;;;;;;3.50;2.40;;;-7.10;99.90;;;;;;5125748;27;20035;-62
2021/12/07 09:13:40;;;;;;;4.97;3.20;;;-7.10;99.90;;;;;;5115387;28;20055;-63
2021/12/07 09:16:11;;;;;;;5.25;2.90;;;-7.10;99.90;;;;;;5122668;27;20035;-63
2021/12/07 09:18:37;;;;;;;8.25;2.97;;;-7.10;99.90;;;;;;5123883;27;20024;-64
2021/12/07 09:21:04;;;;;;;5.63;2.80;;;-7.20;99.90;;;;;;5131182;27;20023;-63
2021/12/07 09:23:30;;;;;;;3.83;2.30;;;-7.10;99.90;;;;;;5118680;27;20031;-63
2021/12/07 09:25:56;;;;;;;4.28;2.67;;;-7.10;99.90;;;;;;5129381;27;20024;-63
2021/12/07 09:28:22;;;;;;;4.63;2.60;;;-7.10;99.90;;;;;;5114766;28;20023;-63
2021/12/07 09:30:51;;;;;;;4.85;2.78;;;-7.10;99.90;;;;;;5115094;28;20123;-63
2021/12/07 09:33:28;;;;;;;5.65;2.63;;;-7.00;99.90;;;;;;5131913;27;20019;-64
2021/12/07 09:35:55;;;;;;;7.65;3.38;;;-6.70;99.90;;;;;;5121373;27;20023;-64
2021/12/07 09:38:22;;;;;;;4.97;2.60;;;-6.70;99.90;;;;;;5125541;27;20106;-64
2021/12/07 09:40:48;;;;;;;4.07;2.50;;;-6.80;99.90;;;;;;5128478;27;20060;-64
2021/12/07 09:43:15;;;;;;;5.10;3.55;;;-6.90;99.90;;;;;;5118566;27;20059;-63
2021/12/07 09:45:42;;;;;;;6.63;2.80;;;-6.90;99.90;;;;;;5126502;27;20080;-63
2021/12/07 09:48:09;;;;;;;8.65;3.20;;;-6.60;99.90;;;;;;5122574;27;20165;-63
2021/12/07 09:50:37;;;;;;;4.32;2.60;;;-5.80;99.90;;;;;;5123514;27;20378;-63
2021/12/07 09:53:07;;;;;;;7.07;2.90;;;-5.60;99.90;;;;;;5113298;27;20483;-63
2021/12/07 09:55:34;;;;;;;7.90;2.28;;;-5.50;99.90;;;;;;5129138;27;20027;-62
2021/12/07 09:58:00;;;;;;;6.10;2.70;;;-5.80;99.90;;;;;;5128764;27;20437;-64
2021/12/07 10:00:26;;;;;;;6.13;2.53;;;-6.00;99.90;;;;;;5124433;27;20051;-62
2021/12/07 10:02:54;;;;;;;4.55;2.95;;;-6.20;99.90;;;;;;5107944;27;20051;-61
2021/12/07 10:05:22;;;;;;;4.45;2.35;;;-6.30;99.90;;;;;;5109032;27;20073;-62
2021/12/07 10:07:50;;;;;;;7.32;2.92;;;-6.40;99.90;;;;;;5129819;27;20429;-64
2021/12/07 10:10:26;;;;;;;3.47;2.38;;;-6.50;99.90;;;;;;5122854;27;20402;-61
2021/12/07 10:12:52;;;;;;;5.72;2.45;;;-6.50;99.90;;;;;;5120561;27;20020;-61
2021/12/07 10:15:19;;;;;;;4.35;2.60;;;-6.60;99.90;;;;;;5114122;28;20039;-61
2021/12/07 10:18:15;;;;;;;5.95;2.70;;;-6.60;99.90;;;;;;5114147;28;20024;-63
2021/12/07 10:20:56;;;;;;;4.20;2.35;;;-6.50;99.90;;;;;;5114776;28;20024;-61
2021/12/07 10:23:30;;;;;;;4.25;2.55;;;-6.10;99.90;;;;;;5103970;28;20096;-61
2021/12/07 10:26:06;;;;;;;5.53;2.50;;;-6.20;99.90;;;;;;5102729;28;20109;-62
2021/12/07 10:28:50;;;;;;;5.22;2.78;;;-6.30;99.90;;;;;;5102812;28;20483;-62
2021/12/07 10:31:21;;;;;;;6.65;2.20;;;-6.40;99.90;;;;;;5096833;28;20054;-62
2021/12/07 10:33:57;;;;;;;4.85;2.55;;;-6.40;99.90;;;;;;5093896;28;20020;-62
2021/12/07 10:36:30;;;;;;;5.38;2.60;;;-6.50;99.90;;;;;;5093841;28;20024;-62
2021/12/07 10:39:18;;;;;;;3.03;2.50;;;-6.60;99.90;;;;;;5093802;28;20031;-62
2021/12/07 10:41:53;;;;;;;3.45;2.47;;;-6.60;99.90;;;;;;5094291;28;20193;-62
2021/12/07 10:44:28;;;;;;;4.97;2.40;;;-6.60;99.90;;;;;;5093601;28;20061;-62
2021/12/07 10:47:00;;;;;;;4.13;2.45;;;-6.60;99.90;;;;;;5094122;28;20024;-62
2021/12/07 10:49:36;;;;;;;5.70;2.53;;;-6.60;99.90;;;;;;5093554;28;20495;-62
2021/12/07 10:52:08;;;;;;;5.78;2.70;;;-6.60;99.90;;;;;;5093816;28;20036;-62
2021/12/07 10:54:45;;;;;;;5.47;2.60;;;-6.50;99.90;;;;;;5093527;28;20356;-62
2021/12/07 10:57:14;;;;;;;5.22;3.00;;;-6.50;99.90;;;;;;5093936;28;20459;-62
2021/12/07 10:59:53;;;;;;;4.85;2.45;;;-6.50;99.90;;;;;;5093376;28;20042;-62
2021/12/07 11:02:19;;;;;;;6.15;2.83;;;-6.50;99.90;;;;;;5093757;28;20025;-61
2021/12/07 11:04:46;;;;;;;8.50;3.28;;;-6.50;99.90;;;;;;5093592;28;20067;-61
2021/12/07 11:07:16;;;;;;;5.20;2.45;;;-6.50;99.90;;;;;;5093267;28;20027;-62
2021/12/07 11:09:55;;;;;;;5.33;2.30;;;-6.50;99.90;;;;;;5103877;28;20160;-61
2021/12/07 11:12:22;;;;;;;3.75;2.42;;;-6.50;99.90;;;;;;5104039;28;20016;-62
2021/12/07 11:14:52;;;;;;;3.13;2.40;;;-6.50;99.90;;;;;;5093236;28;20028;-62
2021/12/07 11:17:31;;;;;;;5.07;2.50;;;-6.60;99.90;;;;;;5093467;28;20034;-62
2021/12/07 11:19:58;;;;;;;8.50;2.60;;;-6.60;99.90;;;;;;5093237;28;20028;-62
2021/12/07 11:22:31;;;;;;;8.70;3.83;;;-6.50;99.90;;;;;;5093465;28;20028;-62
2021/12/07 11:25:01;;;;;;;26.00;11.75;;;-6.50;99.90;;;;;;5091885;28;20031;-62
2021/12/07 11:30:29;;;;;;;13.82;3.22;;;-6.40;99.90;;;;;;5047846;28;20059;-64
2021/12/07 11:32:59;;;;;;;5.57;2.35;;;-6.50;99.90;;;;;;5093037;28;20527;-63
2021/12/07 11:35:27;;;;;;;5.40;2.70;;;-6.50;99.90;;;;;;5092302;28;20020;-63
2021/12/07 11:37:56;;;;;;;4.50;2.67;;;-6.50;99.90;;;;;;5092811;28;20027;-63
2021/12/07 11:40:26;;;;;;;9.70;3.53;;;-6.60;99.90;;;;;;5092704;28;20020;-64
2021/12/07 11:42:52;;;;;;;;;;;-6.60;99.90;;;;;;5093341;28;20030;-64
2021/12/07 11:45:28;;;;;;;3.50;2.60;;;-6.60;99.90;;;;;;5092593;28;20002;-64
2021/12/07 11:48:00;;;;;;;7.22;3.90;;;-6.70;99.90;;;;;;5091344;28;20028;-63
2021/12/07 11:50:28;;;;;;;3.50;2.67;;;-6.70;99.90;;;;;;5092745;28;20044;-64
2021/12/07 11:52:59;;;;;;;7.25;2.63;;;-6.60;99.90;;;;;;5092899;28;20035;-64
2021/12/07 11:55:25;;;;;;;4.63;2.55;;;-6.60;99.90;;;;;;5092492;28;20024;-64
2021/12/07 11:57:51;;;;;;;3.45;2.42;;;-6.70;99.90;;;;;;5092520;28;20040;-64
2021/12/07 12:00:34;;;;;;;4.32;3.22;;;-6.60;99.90;;;;;;5092312;28;20059;-64
2021/12/07 12:03:06;;;;;;;6.50;2.85;;;-6.60;99.90;;;;;;5092441;28;20032;-64
2021/12/07 12:05:32;;;;;;;5.75;2.20;;;-6.60;99.90;;;;;;5092518;28;20086;-64
2021/12/07 12:07:58;;;;;;;4.68;2.80;;;-6.50;99.90;;;;;;5092331;28;20375;-64
2021/12/07 12:10:25;;;;;;;6.90;3.58;;;-6.60;99.90;;;;;;5092329;28;20024;-64
2021/12/07 12:13:12;;;;;;;9.25;4.30;;;-6.60;99.90;;;;;;5092253;28;20028;-64
2021/12/07 12:16:01;;;;;;;4.38;3.15;;;-6.50;99.90;;;;;;5092276;28;20020;-64
2021/12/07 12:18:29;;;;;;;4.68;2.38;;;-6.50;99.90;;;;;;5091973;28;20079;-64
2021/12/07 12:21:07;;;;;;;3.15;2.00;;;-6.50;99.90;;;;;;5092168;28;20365;-64
2021/12/07 12:23:47;;;;;;;3.83;2.03;;;-6.50;99.90;;;;;;5092230;28;20031;-64
2021/12/07 12:26:19;;;;;;;4.15;2.15;;;-6.40;99.90;;;;;;5092480;28;20175;-64
2021/12/07 12:28:49;;;;;;;2.63;2.10;;;-6.50;99.90;;;;;;5092091;28;20140;-66
2021/12/07 12:31:17;;;;;;;2.53;1.92;;;-6.20;99.90;;;;;;5091914;28;20038;-70
2021/12/07 12:33:49;;;;;;;7.28;2.58;;;-5.30;99.90;;;;;;5091706;28;20115;-66
2021/12/07 12:36:16;;;;;;;4.13;2.38;;;-5.40;99.90;;;;;;5105904;28;20032;-66
2021/12/07 12:39:01;;;;;;;6.03;2.97;;;-5.50;99.90;;;;;;5112127;28;20464;-67
2021/12/07 12:41:27;;;;;;;2.20;2.00;;;-5.40;99.90;;;;;;5111960;28;20523;-66
2021/12/07 12:43:56;;;;;;;3.20;2.55;;;-5.70;99.90;;;;;;5112061;28;20024;-66
2021/12/07 12:46:32;;;;;;;2.45;1.80;;;-6.10;99.90;;;;;;5114940;28;20030;-66
2021/12/07 12:49:07;;;;;;;3.58;2.05;;;-6.00;99.90;;;;;;5116345;28;20386;-65
2021/12/07 12:51:50;;;;;;;5.22;2.25;;;-5.80;99.90;;;;;;5116160;28;20027;-65
2021/12/07 12:54:18;;;;;;;3.85;1.90;;;-6.00;99.90;;;;;;5116030;27;20022;-65
2021/12/07 12:56:44;;;;;;;3.47;2.17;;;-6.30;99.90;;;;;;5116074;28;20030;-65
2021/12/07 12:59:12;;;;;;;2.08;1.80;;;-6.30;99.90;;;;;;5116086;28;20024;-65
2021/12/07 13:01:46;;;;;;;4.20;1.92;;;-6.40;99.90;;;;;;5116065;28;20038;-65
2021/12/07 13:04:13;;;;;;;2.72;1.83;;;-6.40;99.90;;;;;;5115942;28;20015;-64
2021/12/07 13:06:46;;;;;;;3.47;1.92;;;-6.50;99.90;;;;;;5115995;28;20035;-64
2021/12/07 13:09:17;;;;;;;3.90;1.90;;;-6.60;99.90;;;;;;5116051;28;20030;-65
2021/12/07 13:11:46;;;;;;;4.93;2.13;;;-6.70;99.90;;;;;;5116152;28;20036;-64
2021/12/07 13:14:27;;;;;;;5.97;2.17;;;-6.80;99.90;;;;;;5124376;27;20031;-65
2021/12/07 13:17:17;;;;;;;3.80;2.10;;;-6.80;99.90;;;;;;5136211;27;20537;-65
2021/12/07 13:20:20;;;;;;;3.70;2.20;;;-6.70;99.90;;;;;;5136216;27;20019;-64
2021/12/07 13:22:52;;;;;;;4.03;1.98;;;-6.70;99.90;;;;;;5136634;27;20261;-64
2021/12/07 13:25:31;;;;;;;2.65;2.10;;;-6.80;99.90;;;;;;5136457;27;20035;-65
2021/12/07 13:28:01;;;;;;;2.75;1.88;;;-6.70;99.90;;;;;;5136427;27;20589;-64
2021/12/07 13:30:46;;;;;;;4.53;2.17;;;-6.80;99.90;;;;;;5135837;27;20039;-65
2021/12/07 13:33:13;;;;;;;3.22;2.17;;;-6.80;99.90;;;;;;5136417;27;20411;-65
2021/12/07 13:35:38;;;;;;;6.22;2.67;;;-6.90;99.90;;;;;;5136158;27;20054;-64
2021/12/07 13:38:34;;;;;;;3.35;2.10;;;-6.80;99.90;;;;;;5136192;27;20034;-64
2021/12/07 13:41:14;;;;;;;2.88;2.20;;;-6.60;99.90;;;;;;5122652;27;20039;-65
2021/12/07 13:43:43;;;;;;;5.13;2.22;;;-6.50;99.90;;;;;;5135880;27;20178;-64
2021/12/07 13:46:18;;;;;;;3.20;2.20;;;-6.50;99.90;;;;;;5135908;27;20051;-64
2021/12/07 13:48:47;;;;;;;4.72;2.15;;;-6.50;99.90;;;;;;5135742;27;20069;-64
2021/12/07 13:51:15;;;;;;;3.10;2.00;;;-6.50;99.90;;;;;;5134573;27;20031;-65
2021/12/07 13:53:43;;;;;;;5.43;2.63;;;-6.40;99.90;;;;;;5135991;27;20015;-64
2021/12/07 13:56:10;;;;;;;3.13;2.30;;;-6.50;99.90;;;;;;5135688;27;20109;-64
2021/12/07 13:59:04;;;;;;;3.90;1.88;;;-6.50;99.90;;;;;;5135049;27;20015;-64
2021/12/07 14:01:32;;;;;;;3.15;2.00;;;-6.50;99.90;;;;;;5135705;27;20522;-64
2021/12/07 14:03:58;;;;;;;4.25;2.15;;;-6.50;99.90;;;;;;5135688;27;20443;-64
2021/12/07 14:06:25;;;;;;;3.08;2.08;;;-6.50;99.90;;;;;;5135455;27;20055;-64
2021/12/07 14:08:51;;;;;;;6.90;2.33;;;-6.60;99.90;;;;;;5135481;27;20031;-64
2021/12/07 14:11:19;;;;;;;4.43;2.03;;;-6.70;99.90;;;;;;5135408;27;20125;-64
2021/12/07 14:13:47;;;;;;;2.42;1.88;;;-6.60;99.90;;;;;;5135197;27;20019;-64
2021/12/07 14:16:16;;;;;;;4.85;2.28;;;-6.60;99.90;;;;;;5135461;27;20149;-64
2021/12/07 14:18:44;;;;;;;3.63;2.10;;;-6.60;99.90;;;;;;5135492;27;20024;-64
2021/12/07 14:21:10;;;;;;;4.75;2.20;;;-6.50;99.90;;;;;;5135752;27;20019;-65
2021/12/07 14:23:42;;;;;;;3.42;2.15;;;-6.70;99.90;;;;;;5135076;27;20149;-64
2021/12/07 14:26:11;;;;;;;3.58;2.30;;;-6.80;99.90;;;;;;5135138;27;20482;-64
2021/12/07 14:28:37;;;;;;;8.43;3.38;;;-6.80;99.90;;;;;;5134988;27;20042;-64
2021/12/07 14:31:13;;;;;;;7.90;3.47;;;-6.80;99.90;;;;;;5135017;27;20035;-64
2021/12/07 14:33:57;;;;;;;7.50;2.63;;;-6.80;99.90;;;;;;5132096;27;20030;-64
2021/12/07 14:36:25;;;;;;;5.70;2.83;;;-6.80;99.90;;;;;;5114356;28;20028;-64
2021/12/07 14:38:54;;;;;;;4.07;2.40;;;-6.90;99.90;;;;;;5114383;28;20725;-66
2021/12/07 14:41:22;;;;;;;4.47;2.22;;;-7.00;99.90;;;;;;5114811;28;20039;-67
2021/12/07 14:43:50;;;;;;;4.95;2.50;;;-7.00;99.90;;;;;;5114229;28;20027;-64
2021/12/07 14:46:18;;;;;;;5.28;2.42;;;-7.00;99.90;;;;;;5108760;28;20023;-64
2021/12/07 14:48:47;;;;;;;3.78;2.63;;;-6.90;99.90;;;;;;5114065;28;20486;-65
2021/12/07 14:51:20;;;;;;;3.67;1.92;;;-6.90;99.90;;;;;;5113936;28;20054;-65
2021/12/07 14:53:49;;;;;;;3.20;2.20;;;-7.00;99.90;;;;;;5112630;28;20016;-66
2021/12/07 14:56:17;;;;;;;4.53;2.65;;;-6.70;99.90;;;;;;5113224;27;20032;-68
2021/12/07 14:58:47;;;;;;;5.35;2.67;;;-6.60;99.90;;;;;;5113218;28;20027;-67
2021/12/07 15:01:25;;;;;;;2.67;1.95;;;-6.70;99.90;;;;;;5113565;28;20052;-68
2021/12/07 15:03:53;;;;;;;5.00;2.03;;;-6.80;99.90;;;;;;5114203;28;20023;-68
2021/12/07 15:06:20;;;;;;;3.75;2.28;;;-6.90;99.90;;;;;;5113907;28;20053;-68
2021/12/07 15:08:46;;;;;;;3.72;2.15;;;-6.90;99.90;;;;;;5105050;28;20020;-68
2021/12/07 15:11:13;;;;;;;3.60;2.45;;;-7.00;99.90;;;;;;5103853;28;20036;-68